ADDS METAR Data INFO
IDs: Format: Raw Decoded Include TAF

Data at: 2253 UTC 22 Jun 2018

K08D 222235Z AUTO 15015KT 10SM 27/13 A2974 RMK AO2
K08D 222215Z AUTO 16016G25KT 10SM 27/13 A2975 RMK AO2
K08D 222155Z AUTO 16017G23KT 10SM 28/13 A2975 RMK AO2 LTG DSNT W AND NW
K08D 222135Z AUTO 15016KT 10SM 28/14 A2975 RMK AO2
K08D 222115Z AUTO 15012G19KT 10SM 27/14 A2976 RMK AO2
K08D 222055Z AUTO 14015KT 10SM 27/14 A2978 RMK AO2
K08D 222035Z AUTO 17013G19KT 10SM 27/14 A2979 RMK AO2
K08D 222015Z AUTO 17014KT 10SM 27/13 A2980 RMK AO2
K08D 221955Z AUTO 17012G21KT 10SM 27/14 A2980 RMK AO2
K08D 221935Z AUTO 16015G22KT 10SM 27/14 A2981 RMK AO2
K08D 221915Z AUTO 17014G20KT 10SM 27/14 A2982 RMK AO2
K08D 221855Z AUTO 17013G19KT 10SM 27/15 A2982 RMK AO2
K08D 221835Z AUTO 17011G17KT 10SM 26/15 A2982 RMK AO2
K08D 221815Z AUTO 17014KT 10SM 26/14 A2983 RMK AO2
K08D 221755Z AUTO 16009KT 10SM 25/15 A2983 RMK AO2
K08D 221735Z AUTO 20011G17KT 10SM 25/14 A2984 RMK AO2
K08D 221715Z AUTO 21012KT 10SM 25/15 A2984 RMK AO2
K08D 221655Z AUTO 20010G16KT 10SM 25/15 A2985 RMK AO2
K08D 221635Z AUTO 21014KT 10SM 25/15 A2985 RMK AO2
K08D 221615Z AUTO 20012KT 10SM 24/15 A2985 RMK AO2
K08D 221555Z AUTO 20012KT 10SM 24/15 A2986 RMK AO2
K08D 221535Z AUTO 20013KT 10SM 24/15 A2986 RMK AO2
K08D 221515Z AUTO 19009KT 10SM 22/16 A2987 RMK AO2
K08D 221455Z AUTO 20009G14KT 10SM 19/16 A2987 RMK AO2
K08D 221435Z AUTO 19010KT 10SM 19/16 A2987 RMK AO2
K08D 221415Z AUTO 18009KT 10SM 18/16 A2987 RMK AO2
K08D 221355Z AUTO 17006G14KT 10SM 19/16 A2987 RMK AO2
K08D 221335Z AUTO 19011KT 10SM 20/16 A2987 RMK AO2
K08D 221315Z AUTO 17011KT 10SM 19/15 A2987 RMK AO2
K08D 221255Z AUTO 17009KT 10SM 18/15 A2987 RMK AO2
K08D 221235Z AUTO 16007KT 10SM 17/16 A2988 RMK AO2
K08D 221215Z AUTO 00000KT 10SM 16/16 A2988 RMK AO2
K08D 221155Z AUTO 14004KT 10SM 15/15 A2988 RMK AO2
K08D 221135Z AUTO 08004KT 10SM 15/15 A2987 RMK AO2
K08D 221115Z AUTO 05003KT 10SM 15/15 A2988 RMK AO2
K08D 221055Z AUTO 00000KT 10SM 15/15 A2989 RMK AO2
K08D 221035Z AUTO 00000KT 10SM 15/15 A2989 RMK AO2
K08D 221015Z AUTO 00000KT 10SM 15/14 A2989 RMK AO2
K08D 220955Z AUTO 00000KT 10SM 15/15 A2990 RMK AO2
K08D 220935Z AUTO 00000KT 10SM 16/14 A2990 RMK AO2
K08D 220915Z AUTO 19004KT 10SM 15/14 A2990 RMK AO2
K08D 220855Z AUTO 21004KT 10SM 15/14 A2991 RMK AO2
K08D 220835Z AUTO 18006KT 10SM 15/14 A2992 RMK AO2
K08D 220815Z AUTO 21005KT 10SM 15/14 A2992 RMK AO2
K08D 220755Z AUTO 00000KT 10SM 15/14 A2993 RMK AO2
K08D 220735Z AUTO 00000KT 10SM 16/14 A2993 RMK AO2
K08D 220715Z AUTO 00000KT 10SM 16/14 A2993 RMK AO2
K08D 220655Z AUTO 00000KT 10SM 16/14 A2993 RMK AO2
K08D 220635Z AUTO 24003KT 10SM 16/15 A2994 RMK AO2
K08D 220615Z AUTO 00000KT 10SM 16/14 A2993 RMK AO2
K08D 220555Z AUTO VRB04KT 10SM 17/14 A2993 RMK AO2
K08D 220535Z AUTO 19005KT 10SM 17/15 A2993 RMK AO2
K08D 220515Z AUTO 19004KT 10SM 17/15 A2993 RMK AO2
K08D 220455Z AUTO 23003KT 10SM 17/16 A2994 RMK AO2
K08D 220435Z AUTO 00000KT 10SM 17/16 A2994 RMK AO2
K08D 220415Z AUTO 00000KT 10SM 19/16 A2994 RMK AO2
K08D 220355Z AUTO 00000KT 10SM 19/17 A2995 RMK AO2
K08D 220335Z AUTO 11003KT 10SM 20/16 A2995 RMK AO2
K08D 220315Z AUTO 13003KT 10SM 21/15 A2994 RMK AO2
K08D 220255Z AUTO 16005KT 10SM 21/15 A2994 RMK AO2
K08D 220235Z AUTO 16004KT 10SM 21/16 A2994 RMK AO2
K08D 220215Z AUTO 17004KT 10SM 22/15 A2994 RMK AO2
K08D 220155Z AUTO 16004KT 10SM 23/13 A2994 RMK AO2
K08D 220135Z AUTO 16005KT 10SM 23/12 A2995 RMK AO2
K08D 220115Z AUTO 16008KT 10SM 24/12 A2995 RMK AO2
K08D 220055Z AUTO 14007KT 10SM 25/12 A2994 RMK AO2
K08D 220035Z AUTO 13007KT 10SM 25/12 A2995 RMK AO2
K08D 220015Z AUTO 12008KT 10SM 26/11 A2995 RMK AO2
K08D 212355Z AUTO 13007KT 10SM 26/11 A2996 RMK AO2
K08D 212335Z AUTO 15005KT 10SM 25/12 A2996 RMK AO2
K08D 212315Z AUTO 00000KT 10SM 26/12 A2997 RMK AO2
K08D 212255Z AUTO 00000KT 10SM 26/12 A2998 RMK AO2
K08D 212235Z AUTO 24006KT 10SM 26/13 A2998 RMK AO2
K08D 212135Z AUTO 00000KT 10SM 26/12 A2999 RMK AO2
K08D 212115Z AUTO 20007KT 10SM 26/12 A2999 RMK AO2
K08D 212055Z AUTO VRB05KT 10SM 26/11 A2999 RMK AO2
K08D 212035Z AUTO 00000KT 10SM 26/11 A3000 RMK AO2
K08D 212015Z AUTO 24003KT 10SM 26/11 A3000 RMK AO2
K08D 211955Z AUTO 22004KT 10SM 26/11 A3000 RMK AO2
K08D 211935Z AUTO 23005KT 10SM 26/10 A3001 RMK AO2
K08D 211915Z AUTO 21005KT 10SM 26/12 A3001 RMK AO2
K08D 211855Z AUTO 15005KT 10SM 26/10 A3001 RMK AO2
K08D 211835Z AUTO 18006KT 10SM 26/12 A3001 RMK AO2
K08D 211815Z AUTO 16004KT 10SM 26/11 A3002 RMK AO2
K08D 211755Z AUTO 15006KT 110V180 10SM 26/12 A3002 RMK AO2
K08D 211735Z AUTO 15006KT 10SM 25/12 A3002 RMK AO2
K08D 211715Z AUTO VRB05KT 10SM 25/11 A3002 RMK AO2
K08D 211655Z AUTO 00000KT 10SM 24/12 A3003 RMK AO2
K08D 211635Z AUTO 16003KT 10SM 24/13 A3003 RMK AO2
K08D 211615Z AUTO VRB04KT 10SM 24/12 A3003 RMK AO2
K08D 211555Z AUTO 00000KT 10SM 24/12 A3004 RMK AO2
K08D 211535Z AUTO 00000KT 10SM 23/13 A3004 RMK AO2
K08D 211515Z AUTO 00000KT 10SM 23/14 A3004 RMK AO2
K08D 211455Z AUTO 00000KT 10SM 22/13 A3004 RMK AO2
K08D 211435Z AUTO 33003KT 10SM 22/13 A3004 RMK AO2
K08D 211415Z AUTO 35004KT 10SM 22/13 A3004 RMK AO2
K08D 211355Z AUTO 34004KT 10SM 21/13 A3004 RMK AO2
K08D 211335Z AUTO 34005KT 10SM 21/13 A3004 RMK AO2
K08D 211315Z AUTO VRB03KT 10SM 20/13 A3005 RMK AO2
K08D 211255Z AUTO 33003KT 10SM 20/13 A3005 RMK AO2
K08D 211235Z AUTO 00000KT 10SM 19/14 A3005 RMK AO2
K08D 211215Z AUTO 00000KT 10SM 17/14 A3005 RMK AO2
K08D 211155Z AUTO 00000KT 10SM 16/13 A3004 RMK AO2
K08D 211135Z AUTO 00000KT 10SM 15/12 A3004 RMK AO2
K08D 211115Z AUTO 32003KT 10SM 16/12 A3004 RMK AO2
K08D 211055Z AUTO 31005KT 10SM 16/13 A3004 RMK AO2